createdAt,value
2022-10-01T00:00:58.250Z,11.91
2022-10-01T00:06:15.529Z,12.00
2022-10-01T00:11:32.591Z,12.00
2022-10-01T00:16:34.382Z,11.92
2022-10-01T00:21:42.944Z,11.91
2022-10-01T00:26:44.315Z,11.99
2022-10-01T00:31:45.723Z,12.07
2022-10-01T00:36:47.211Z,12.00
2022-10-01T00:41:48.618Z,11.98
2022-10-01T00:46:51.545Z,11.85
2022-10-01T00:51:57.221Z,11.72
2022-10-01T00:57:00.631Z,11.70
2022-10-01T01:02:02.071Z,11.65
2022-10-01T01:07:04.705Z,11.58
2022-10-01T01:12:31.301Z,11.62
2022-10-01T01:17:48.515Z,11.48
2022-10-01T01:23:19.659Z,11.46
2022-10-01T01:28:39.544Z,11.45
2022-10-01T01:33:45.075Z,11.55
2022-10-01T01:38:51.797Z,11.34
2022-10-01T01:43:56.829Z,11.33
2022-10-01T01:49:00.964Z,11.22
2022-10-01T01:54:02.788Z,11.17
2022-10-01T01:59:04.622Z,11.13
2022-10-01T02:04:19.863Z,11.17
2022-10-01T02:09:37.109Z,11.13
2022-10-01T02:15:07.689Z,11.18
2022-10-01T02:20:20.741Z,11.17
2022-10-01T02:25:28.998Z,11.16
2022-10-01T02:30:33.154Z,10.99
2022-10-01T02:35:36.888Z,11.04
2022-10-01T02:40:42.371Z,10.98
2022-10-01T02:45:47.413Z,10.95
2022-10-01T02:50:53.849Z,10.92
2022-10-01T02:55:56.686Z,10.88
2022-10-01T03:00:58.112Z,10.96
2022-10-01T03:05:59.456Z,10.95
2022-10-01T03:11:00.812Z,10.96
2022-10-01T03:16:02.274Z,10.91
2022-10-01T03:21:03.801Z,10.92
2022-10-01T03:26:05.223Z,11.03
2022-10-01T03:31:08.863Z,10.97
2022-10-01T03:36:10.414Z,11.01
2022-10-01T03:41:11.804Z,11.07
2022-10-01T03:46:13.730Z,10.97
2022-10-01T03:51:19.666Z,10.95
2022-10-01T03:56:21.395Z,10.88
2022-10-01T04:01:23.047Z,10.90
2022-10-01T04:06:25.002Z,10.91
2022-10-01T04:11:26.343Z,10.93
2022-10-01T04:16:28.248Z,11.02
2022-10-01T04:21:29.660Z,10.95
2022-10-01T04:26:31.045Z,10.96
2022-10-01T04:31:32.880Z,10.90
2022-10-01T04:36:34.415Z,11.00
2022-10-01T04:41:36.015Z,10.98
2022-10-01T04:46:37.555Z,11.21
2022-10-01T04:51:38.897Z,11.20
2022-10-01T04:56:40.252Z,11.10
2022-10-01T05:01:41.659Z,11.19
2022-10-01T05:06:43.179Z,11.12
2022-10-01T05:11:44.520Z,11.31
2022-10-01T05:16:46.169Z,11.23
2022-10-01T05:21:47.644Z,11.29
2022-10-01T05:26:48.997Z,11.48
2022-10-01T05:31:50.415Z,11.39
2022-10-01T05:36:51.891Z,11.46
2022-10-01T05:41:53.229Z,11.38
2022-10-01T05:46:54.743Z,11.35
2022-10-01T05:51:56.077Z,11.33
2022-10-01T05:56:57.506Z,11.49
2022-10-01T06:01:59.001Z,11.24
2022-10-01T06:07:00.468Z,11.41
2022-10-01T06:12:01.899Z,11.57
2022-10-01T06:17:03.252Z,11.58
2022-10-01T06:22:04.630Z,11.56
2022-10-01T06:27:06.072Z,11.59
2022-10-01T06:32:07.860Z,11.74
2022-10-01T06:37:09.279Z,11.85
2022-10-01T06:42:12.163Z,11.88
2022-10-01T06:47:13.685Z,12.00
2022-10-01T06:52:16.535Z,11.94
2022-10-01T06:57:17.968Z,12.11
2022-10-01T07:02:25.523Z,12.12
2022-10-01T07:07:44.812Z,12.32
2022-10-01T07:12:46.919Z,12.32
2022-10-01T07:17:50.302Z,12.49
2022-10-01T07:22:57.540Z,12.82
2022-10-01T07:28:01.758Z,12.95
2022-10-01T07:33:03.279Z,13.05
2022-10-01T07:38:05.154Z,13.09
2022-10-01T07:43:07.016Z,13.17
2022-10-01T07:48:08.396Z,13.39
2022-10-01T07:53:12.874Z,13.39
2022-10-01T07:58:14.336Z,13.68
2022-10-01T08:03:22.170Z,13.89
2022-10-01T08:08:23.575Z,13.93
2022-10-01T08:13:25.131Z,14.01
2022-10-01T08:18:26.562Z,14.14
2022-10-01T08:23:29.542Z,14.40
2022-10-01T08:28:31.064Z,14.36
2022-10-01T08:33:32.523Z,14.33
2022-10-01T08:38:34.649Z,14.23
2022-10-01T08:43:41.229Z,14.09
2022-10-01T08:49:03.497Z,13.98
2022-10-01T08:54:23.258Z,13.84
2022-10-01T08:59:42.771Z,13.89
2022-10-01T09:04:44.209Z,14.00
2022-10-01T09:09:54.059Z,14.12
2022-10-01T09:14:55.407Z,14.03
2022-10-01T09:20:18.902Z,14.00
2022-10-01T09:25:30.816Z,14.38
2022-10-01T09:36:50.126Z,15.58
2022-10-01T09:42:01.809Z,16.21
2022-10-01T09:47:42.912Z,17.57
2022-10-01T09:52:52.847Z,19.35
2022-10-01T09:58:27.751Z,20.64
2022-10-01T10:08:58.345Z,20.82
2022-10-01T10:14:02.221Z,19.99
2022-10-01T10:19:07.277Z,20.01
2022-10-01T10:24:23.971Z,19.32
2022-10-01T10:29:34.311Z,18.24
2022-10-01T10:34:44.273Z,17.49
2022-10-01T10:39:50.885Z,17.30
2022-10-01T10:44:55.781Z,18.57
2022-10-01T10:50:01.119Z,18.26
2022-10-01T10:55:21.545Z,17.82
2022-10-01T11:00:24.933Z,17.94
2022-10-01T11:05:29.513Z,18.17
2022-10-01T11:10:35.589Z,17.93
2022-10-01T11:16:01.273Z,18.18
2022-10-01T11:21:08.154Z,17.82
2022-10-01T11:26:26.060Z,17.36
2022-10-01T11:31:58.850Z,16.99
2022-10-01T11:37:18.596Z,17.18
2022-10-01T11:42:52.310Z,17.31
2022-10-01T11:48:06.691Z,17.01
2022-10-01T11:53:33.726Z,16.98
2022-10-01T12:04:39.420Z,16.65
2022-10-01T12:10:18.195Z,16.59
2022-10-01T12:15:45.756Z,16.14
2022-10-01T12:20:57.563Z,15.69
2022-10-01T12:26:17.830Z,15.44
2022-10-01T12:31:33.187Z,15.28
2022-10-01T12:36:57.917Z,15.28
2022-10-01T12:42:17.803Z,15.27
2022-10-01T12:47:46.614Z,15.11
2022-10-01T12:53:12.411Z,17.16
2022-10-01T12:58:52.668Z,19.49
2022-10-01T13:04:12.775Z,21.83
2022-10-01T13:09:19.999Z,21.24
2022-10-01T13:14:22.996Z,21.40
2022-10-01T13:19:47.253Z,21.66
2022-10-01T13:25:08.757Z,20.17
2022-10-01T13:30:19.617Z,19.80
2022-10-01T13:35:49.163Z,21.05
2022-10-01T13:40:57.722Z,22.10
2022-10-01T13:46:11.146Z,22.61
2022-10-01T13:51:15.083Z,23.03
2022-10-01T13:56:34.827Z,23.25
2022-10-01T14:01:42.095Z,22.73
2022-10-01T14:06:47.249Z,21.42
2022-10-01T14:11:53.531Z,20.57
2022-10-01T14:16:55.499Z,20.10
2022-10-01T14:22:27.866Z,19.51
2022-10-01T14:27:45.059Z,19.25
2022-10-01T14:33:05.037Z,18.91
2022-10-01T14:38:18.108Z,18.81
2022-10-01T14:43:22.430Z,18.72
2022-10-01T14:48:26.191Z,18.61
2022-10-01T14:53:31.910Z,18.47
2022-10-01T14:58:37.579Z,18.37
2022-10-01T15:03:40.118Z,18.27
2022-10-01T15:08:44.138Z,18.27
2022-10-01T15:13:47.951Z,18.22
2022-10-01T15:18:56.156Z,18.05
2022-10-01T15:23:57.822Z,17.99
2022-10-01T15:29:06.745Z,18.15
2022-10-01T15:34:12.619Z,18.11
2022-10-01T15:39:33.243Z,18.18
2022-10-01T15:44:38.574Z,18.35
2022-10-01T15:49:40.162Z,18.55
2022-10-01T15:54:43.672Z,18.57
2022-10-01T15:59:46.240Z,18.44
2022-10-01T16:04:47.978Z,18.24
2022-10-01T16:09:57.195Z,18.02
2022-10-01T16:15:02.571Z,17.86
2022-10-01T16:20:16.032Z,17.59
2022-10-01T16:25:23.376Z,17.43
2022-10-01T16:30:28.486Z,17.37
2022-10-01T16:35:32.559Z,17.17
2022-10-01T16:40:39.136Z,17.05
2022-10-01T16:45:41.834Z,16.93
2022-10-01T16:50:44.209Z,16.63
2022-10-01T16:55:47.903Z,16.49
2022-10-01T17:00:49.425Z,16.38
2022-10-01T17:05:50.842Z,16.17
2022-10-01T17:10:55.373Z,16.10
2022-10-01T17:15:57.189Z,15.88
2022-10-01T17:20:58.629Z,15.76
2022-10-01T17:26:00.025Z,15.65
2022-10-01T17:31:01.476Z,15.47
2022-10-01T17:36:06.828Z,15.33
2022-10-01T17:41:08.218Z,15.20
2022-10-01T17:46:09.618Z,15.06
2022-10-01T17:51:11.418Z,14.88
2022-10-01T17:56:15.800Z,14.77
2022-10-01T18:01:19.975Z,14.65
2022-10-01T18:06:23.181Z,14.71
2022-10-01T18:11:26.809Z,14.55
2022-10-01T18:16:28.359Z,14.45
2022-10-01T18:21:29.890Z,14.46
2022-10-01T18:26:31.966Z,14.35
2022-10-01T18:31:37.069Z,14.37
2022-10-01T18:36:58.911Z,14.29
2022-10-01T18:42:22.438Z,14.25
2022-10-01T18:47:33.391Z,14.09
2022-10-01T18:52:43.866Z,14.00
2022-10-01T18:58:07.232Z,13.96
2022-10-01T19:03:41.182Z,13.79
2022-10-01T19:08:48.955Z,13.63
2022-10-01T19:14:18.443Z,13.55
2022-10-01T19:19:57.465Z,13.44
2022-10-01T19:25:27.011Z,13.31
2022-10-01T19:30:42.673Z,13.19
2022-10-01T19:35:50.243Z,13.09
2022-10-01T19:41:15.687Z,12.99
2022-10-01T19:46:31.904Z,12.90
2022-10-01T19:51:40.653Z,12.81
2022-10-01T19:56:48.498Z,12.70
2022-10-01T20:01:58.297Z,12.58
2022-10-01T20:07:10.881Z,12.46
2022-10-01T20:12:26.113Z,12.34
2022-10-01T20:17:56.369Z,12.23
2022-10-01T20:23:06.039Z,12.12
2022-10-01T20:28:39.780Z,12.11
2022-10-01T20:33:52.501Z,12.20
2022-10-01T20:39:02.391Z,12.12
2022-10-01T20:44:06.613Z,12.08
2022-10-01T20:49:20.618Z,12.03
2022-10-01T20:54:30.772Z,11.98
2022-10-01T20:59:43.748Z,11.95
2022-10-01T21:04:52.943Z,11.97
2022-10-01T21:09:57.883Z,12.11
2022-10-01T21:15:01.849Z,12.20
2022-10-01T21:20:32.257Z,11.99
2022-10-01T21:25:43.298Z,11.94
2022-10-01T21:31:06.168Z,11.89
2022-10-01T21:36:23.941Z,11.86
2022-10-01T21:41:36.306Z,11.83
2022-10-01T21:47:07.729Z,11.75
2022-10-01T21:52:15.200Z,11.73
2022-10-01T21:57:35.425Z,11.64
2022-10-01T22:02:38.160Z,11.57
2022-10-01T22:07:52.316Z,11.51
2022-10-01T22:12:56.503Z,11.43
2022-10-01T22:18:02.223Z,11.48
2022-10-01T22:23:09.055Z,11.53
2022-10-01T22:28:17.588Z,11.54
2022-10-01T22:33:26.260Z,11.52
2022-10-01T22:38:48.310Z,11.53
2022-10-01T22:43:49.766Z,11.51
2022-10-01T22:48:55.297Z,11.48
2022-10-01T22:54:34.167Z,11.51
2022-10-01T22:59:52.894Z,11.46
2022-10-01T23:05:29.416Z,11.44
2022-10-01T23:10:59.097Z,11.45
2022-10-01T23:16:06.445Z,11.44
2022-10-01T23:21:35.999Z,11.40
2022-10-01T23:26:46.328Z,11.38
2022-10-01T23:32:07.819Z,11.37
2022-10-01T23:37:34.994Z,11.33
2022-10-01T23:43:10.443Z,11.51
2022-10-01T23:48:23.296Z,11.54
2022-10-01T23:53:37.090Z,11.50
2022-10-01T23:58:45.856Z,11.54
